sensor_id;sensor_type;location;lat;lon;timestamp;pressure;altitude;pressure_sealevel;temperature;humidity
72061;BME280;59925;52.136;5.420;2023-02-15T00:01:39;103149.13;;;0.86;83.90
72061;BME280;59925;52.136;5.420;2023-02-15T00:04:07;103150.94;;;0.86;84.00
72061;BME280;59925;52.136;5.420;2023-02-15T00:06:34;103140.09;;;0.89;84.38
72061;BME280;59925;52.136;5.420;2023-02-15T00:09:02;103134.53;;;0.92;84.14
72061;BME280;59925;52.136;5.420;2023-02-15T00:11:29;103131.19;;;0.90;84.14
72061;BME280;59925;52.136;5.420;2023-02-15T00:14:31;103131.19;;;0.90;84.05
72061;BME280;59925;52.136;5.420;2023-02-15T00:16:57;103127.41;;;0.93;83.77
72061;BME280;59925;52.136;5.420;2023-02-15T00:19:25;103126.88;;;0.89;83.63
72061;BME280;59925;52.136;5.420;2023-02-15T00:21:52;103126.94;;;0.79;84.06
72061;BME280;59925;52.136;5.420;2023-02-15T00:24:19;103131.00;;;0.73;84.40
72061;BME280;59925;52.136;5.420;2023-02-15T00:26:47;103131.28;;;0.70;84.25
72061;BME280;59925;52.136;5.420;2023-02-15T00:29:14;103132.00;;;0.63;84.52
72061;BME280;59925;52.136;5.420;2023-02-15T00:31:41;103137.19;;;0.54;84.46
72061;BME280;59925;52.136;5.420;2023-02-15T00:34:13;103129.03;;;0.48;85.06
72061;BME280;59925;52.136;5.420;2023-02-15T00:36:41;103132.63;;;0.47;85.00
72061;BME280;59925;52.136;5.420;2023-02-15T00:39:07;103130.16;;;0.45;85.15
72061;BME280;59925;52.136;5.420;2023-02-15T00:41:34;103125.53;;;0.47;85.09
72061;BME280;59925;52.136;5.420;2023-02-15T00:44:00;103120.41;;;0.45;85.25
72061;BME280;59925;52.136;5.420;2023-02-15T00:46:27;103113.34;;;0.46;84.99
72061;BME280;59925;52.136;5.420;2023-02-15T00:48:53;103110.03;;;0.44;84.90
72061;BME280;59925;52.136;5.420;2023-02-15T00:51:20;103107.22;;;0.45;85.13
72061;BME280;59925;52.136;5.420;2023-02-15T00:53:47;103104.88;;;0.42;84.69
72061;BME280;59925;52.136;5.420;2023-02-15T00:56:14;103108.91;;;0.37;84.70
72061;BME280;59925;52.136;5.420;2023-02-15T00:58:41;103107.97;;;0.28;85.04
72061;BME280;59925;52.136;5.420;2023-02-15T01:01:13;103112.19;;;0.21;85.17
72061;BME280;59925;52.136;5.420;2023-02-15T01:03:40;103106.78;;;0.12;85.59
72061;BME280;59925;52.136;5.420;2023-02-15T01:06:10;103107.06;;;0.09;85.41
72061;BME280;59925;52.136;5.420;2023-02-15T01:08:37;103113.16;;;0.10;85.49
72061;BME280;59925;52.136;5.420;2023-02-15T01:11:10;103116.09;;;0.07;85.80
72061;BME280;59925;52.136;5.420;2023-02-15T01:13:36;103108.75;;;0.01;85.79
72061;BME280;59925;52.136;5.420;2023-02-15T01:16:03;103112.81;;;-0.05;85.54
72061;BME280;59925;52.136;5.420;2023-02-15T01:18:31;103106.84;;;-0.07;85.92
72061;BME280;59925;52.136;5.420;2023-02-15T01:20:58;103100.59;;;-0.06;85.73
72061;BME280;59925;52.136;5.420;2023-02-15T01:23:25;103096.97;;;-0.05;85.94
72061;BME280;59925;52.136;5.420;2023-02-15T01:25:51;103098.75;;;-0.06;85.42
72061;BME280;59925;52.136;5.420;2023-02-15T01:28:18;103094.50;;;-0.07;85.40
72061;BME280;59925;52.136;5.420;2023-02-15T01:30:44;103084.91;;;-0.08;85.82
72061;BME280;59925;52.136;5.420;2023-02-15T01:33:11;103084.75;;;-0.06;85.75
72061;BME280;59925;52.136;5.420;2023-02-15T01:35:47;103087.94;;;-0.03;85.69
72061;BME280;59925;52.136;5.420;2023-02-15T01:38:14;103083.50;;;-0.02;85.73
72061;BME280;59925;52.136;5.420;2023-02-15T01:40:41;103074.91;;;-0.04;85.57
72061;BME280;59925;52.136;5.420;2023-02-15T01:43:11;103071.44;;;-0.05;85.32
72061;BME280;59925;52.136;5.420;2023-02-15T01:45:38;103077.25;;;-0.01;85.43
72061;BME280;59925;52.136;5.420;2023-02-15T01:50:48;103064.91;;;-0.01;85.41
72061;BME280;59925;52.136;5.420;2023-02-15T01:54:09;103067.69;;;-0.02;85.33
72061;BME280;59925;52.136;5.420;2023-02-15T01:56:34;103058.25;;;-0.05;84.71
72061;BME280;59925;52.136;5.420;2023-02-15T01:59:06;103061.84;;;-0.06;85.25
72061;BME280;59925;52.136;5.420;2023-02-15T02:01:34;103064.63;;;-0.07;85.21
72061;BME280;59925;52.136;5.420;2023-02-15T02:04:13;103058.56;;;-0.18;85.49
72061;BME280;59925;52.136;5.420;2023-02-15T02:06:44;103059.38;;;-0.17;85.43
72061;BME280;59925;52.136;5.420;2023-02-15T02:09:12;103063.41;;;-0.23;85.26
72061;BME280;59925;52.136;5.420;2023-02-15T02:11:40;103064.56;;;-0.35;85.77
72061;BME280;59925;52.136;5.420;2023-02-15T02:14:07;103061.53;;;-0.40;86.10
72061;BME280;59925;52.136;5.420;2023-02-15T02:25:21;103045.41;;;-0.37;86.05
72061;BME280;59925;52.136;5.420;2023-02-15T02:34:19;103034.31;;;-0.31;85.77
72061;BME280;59925;52.136;5.420;2023-02-15T02:37:14;103027.09;;;-0.29;85.91
72061;BME280;59925;52.136;5.420;2023-02-15T02:39:56;103026.13;;;-0.28;85.70
72061;BME280;59925;52.136;5.420;2023-02-15T02:42:38;103029.03;;;-0.31;85.98
72061;BME280;59925;52.136;5.420;2023-02-15T02:47:55;103019.50;;;-0.52;85.92
72061;BME280;59925;52.136;5.420;2023-02-15T02:50:26;103017.72;;;-0.61;86.26
72061;BME280;59925;52.136;5.420;2023-02-15T02:52:55;103019.13;;;-0.67;86.02
72061;BME280;59925;52.136;5.420;2023-02-15T02:55:31;103007.75;;;-0.67;86.50
72061;BME280;59925;52.136;5.420;2023-02-15T02:58:19;103006.91;;;-0.68;86.13
72061;BME280;59925;52.136;5.420;2023-02-15T03:00:56;103010.66;;;-0.70;86.34
72061;BME280;59925;52.136;5.420;2023-02-15T03:03:35;103005.94;;;-0.77;86.28
72061;BME280;59925;52.136;5.420;2023-02-15T03:06:16;103008.03;;;-0.80;86.37
72061;BME280;59925;52.136;5.420;2023-02-15T03:08:49;103009.84;;;-0.81;86.67
72061;BME280;59925;52.136;5.420;2023-02-15T03:11:16;103004.84;;;-0.84;86.83
72061;BME280;59925;52.136;5.420;2023-02-15T03:13:45;103002.22;;;-0.84;86.73
72061;BME280;59925;52.136;5.420;2023-02-15T03:16:14;102998.63;;;-0.83;87.17
72061;BME280;59925;52.136;5.420;2023-02-15T03:19:09;102991.53;;;-0.82;87.01
72061;BME280;59925;52.136;5.420;2023-02-15T03:24:11;102979.91;;;-0.80;86.73
72061;BME280;59925;52.136;5.420;2023-02-15T03:26:43;102977.41;;;-0.81;86.42
72061;BME280;59925;52.136;5.420;2023-02-15T03:29:12;102985.44;;;-0.83;86.59
72061;BME280;59925;52.136;5.420;2023-02-15T03:31:41;102979.63;;;-0.86;86.31
72061;BME280;59925;52.136;5.420;2023-02-15T03:34:12;102979.75;;;-0.88;86.87
72061;BME280;59925;52.136;5.420;2023-02-15T03:39:24;102977.00;;;-0.96;87.10
72061;BME280;59925;52.136;5.420;2023-02-15T03:41:59;102980.88;;;-1.00;86.88
72061;BME280;59925;52.136;5.420;2023-02-15T03:44:31;102977.28;;;-0.99;86.92
72061;BME280;59925;52.136;5.420;2023-02-15T03:49:41;102968.25;;;-0.97;86.75
72061;BME280;59925;52.136;5.420;2023-02-15T03:52:10;102977.69;;;-0.94;86.26
72061;BME280;59925;52.136;5.420;2023-02-15T03:54:37;102972.28;;;-0.93;86.67
72061;BME280;59925;52.136;5.420;2023-02-15T03:57:20;102965.06;;;-0.90;86.82
72061;BME280;59925;52.136;5.420;2023-02-15T04:05:44;102960.66;;;-1.00;86.24
72061;BME280;59925;52.136;5.420;2023-02-15T04:08:11;102960.22;;;-1.05;86.01
72061;BME280;59925;52.136;5.420;2023-02-15T04:10:38;102961.34;;;-1.08;86.18
72061;BME280;59925;52.136;5.420;2023-02-15T04:13:24;102959.69;;;-1.09;86.85
72061;BME280;59925;52.136;5.420;2023-02-15T04:15:55;102952.59;;;-1.08;86.61
72061;BME280;59925;52.136;5.420;2023-02-15T04:18:51;102959.38;;;-1.05;86.16
72061;BME280;59925;52.136;5.420;2023-02-15T04:21:36;102959.38;;;-1.05;86.18
72061;BME280;59925;52.136;5.420;2023-02-15T04:24:21;102956.75;;;-1.05;86.61
72061;BME280;59925;52.136;5.420;2023-02-15T04:27:06;102959.97;;;-1.12;86.15
72061;BME280;59925;52.136;5.420;2023-02-15T04:29:32;102963.28;;;-1.19;86.63
72061;BME280;59925;52.136;5.420;2023-02-15T04:32:00;102956.63;;;-1.24;86.74
72061;BME280;59925;52.136;5.420;2023-02-15T04:34:27;102960.22;;;-1.25;86.79
72061;BME280;59925;52.136;5.420;2023-02-15T04:36:53;102956.63;;;-1.24;86.82
72061;BME280;59925;52.136;5.420;2023-02-15T04:39:20;102951.34;;;-1.24;86.68
72061;BME280;59925;52.136;5.420;2023-02-15T04:41:46;102950.28;;;-1.21;86.28
72061;BME280;59925;52.136;5.420;2023-02-15T04:44:14;102939.59;;;-1.19;86.54
72061;BME280;59925;52.136;5.420;2023-02-15T04:46:40;102944.31;;;-1.23;86.08
72061;BME280;59925;52.136;5.420;2023-02-15T04:49:07;102938.06;;;-1.22;86.21
72061;BME280;59925;52.136;5.420;2023-02-15T04:51:34;102936.25;;;-1.21;86.55
72061;BME280;59925;52.136;5.420;2023-02-15T04:54:00;102936.41;;;-1.23;86.66
72061;BME280;59925;52.136;5.420;2023-02-15T04:56:27;102932.13;;;-1.24;86.19
72061;BME280;59925;52.136;5.420;2023-02-15T04:58:53;102930.19;;;-1.22;86.26
72061;BME280;59925;52.136;5.420;2023-02-15T05:01:19;102931.16;;;-1.23;86.17
72061;BME280;59925;52.136;5.420;2023-02-15T05:03:46;102932.13;;;-1.24;86.38
72061;BME280;59925;52.136;5.420;2023-02-15T05:06:12;102935.72;;;-1.25;86.73
72061;BME280;59925;52.136;5.420;2023-02-15T05:08:39;102934.03;;;-1.26;86.76
72061;BME280;59925;52.136;5.420;2023-02-15T05:11:05;102932.53;;;-1.29;86.97
72061;BME280;59925;52.136;5.420;2023-02-15T05:13:31;102935.28;;;-1.30;86.57
72061;BME280;59925;52.136;5.420;2023-02-15T05:15:58;102930.31;;;-1.33;86.84
72061;BME280;59925;52.136;5.420;2023-02-15T05:18:24;102931.72;;;-1.39;87.10
72061;BME280;59925;52.136;5.420;2023-02-15T05:20:51;102923.22;;;-1.43;86.83
72061;BME280;59925;52.136;5.420;2023-02-15T05:23:17;102921.44;;;-1.42;87.37
72061;BME280;59925;52.136;5.420;2023-02-15T05:25:50;102927.78;;;-1.45;87.12
72061;BME280;59925;52.136;5.420;2023-02-15T05:28:37;102915.75;;;-1.47;86.90
72061;BME280;59925;52.136;5.420;2023-02-15T05:31:07;102915.50;;;-1.44;87.21
72061;BME280;59925;52.136;5.420;2023-02-15T05:33:34;102919.78;;;-1.43;87.32
72061;BME280;59925;52.136;5.420;2023-02-15T05:36:01;102921.88;;;-1.47;87.50
72061;BME280;59925;52.136;5.420;2023-02-15T05:38:29;102923.09;;;-1.51;87.32
72061;BME280;59925;52.136;5.420;2023-02-15T05:40:56;102926.53;;;-1.50;87.57
72061;BME280;59925;52.136;5.420;2023-02-15T05:43:23;102926.69;;;-1.52;87.21
72061;BME280;59925;52.136;5.420;2023-02-15T05:45:52;102922.25;;;-1.51;87.31
72061;BME280;59925;52.136;5.420;2023-02-15T05:48:20;102925.72;;;-1.51;87.15
72061;BME280;59925;52.136;5.420;2023-02-15T05:51:00;102922.94;;;-1.49;86.76
72061;BME280;59925;52.136;5.420;2023-02-15T05:53:29;102923.09;;;-1.51;87.15
72061;BME280;59925;52.136;5.420;2023-02-15T05:55:56;102924.06;;;-1.52;86.71
72061;BME280;59925;52.136;5.420;2023-02-15T05:58:26;102924.88;;;-1.51;86.90
72061;BME280;59925;52.136;5.420;2023-02-15T06:00:54;102924.88;;;-1.51;86.90
72061;BME280;59925;52.136;5.420;2023-02-15T06:03:22;102914.25;;;-1.50;87.08
72061;BME280;59925;52.136;5.420;2023-02-15T06:05:49;102912.56;;;-1.51;86.74
72061;BME280;59925;52.136;5.420;2023-02-15T06:08:15;102912.31;;;-1.48;86.71
72061;BME280;59925;52.136;5.420;2023-02-15T06:10:42;102913.28;;;-1.49;86.79
72061;BME280;59925;52.136;5.420;2023-02-15T06:13:08;102919.34;;;-1.48;86.59
72061;BME280;59925;52.136;5.420;2023-02-15T06:15:34;102916.72;;;-1.48;86.76
72061;BME280;59925;52.136;5.420;2023-02-15T06:18:01;102909.78;;;-1.49;86.82
72061;BME280;59925;52.136;5.420;2023-02-15T06:20:28;102914.25;;;-1.50;86.53
72061;BME280;59925;52.136;5.420;2023-02-15T06:22:54;102909.78;;;-1.49;86.79
72061;BME280;59925;52.136;5.420;2023-02-15T06:25:21;102904.25;;;-1.46;86.29
72061;BME280;59925;52.136;5.420;2023-02-15T06:27:47;102902.47;;;-1.46;86.66
72061;BME280;59925;52.136;5.420;2023-02-15T06:30:14;102907.31;;;-1.41;86.62
72061;BME280;59925;52.136;5.420;2023-02-15T06:32:40;102903.16;;;-1.44;87.09
72061;BME280;59925;52.136;5.420;2023-02-15T06:35:07;102905.13;;;-1.46;86.96
72061;BME280;59925;52.136;5.420;2023-02-15T06:37:33;102904.25;;;-1.46;87.54
72061;BME280;59925;52.136;5.420;2023-02-15T06:40:00;102909.78;;;-1.49;87.20
72061;BME280;59925;52.136;5.420;2023-02-15T06:42:29;102908.28;;;-1.52;87.59
72061;BME280;59925;52.136;5.420;2023-02-15T06:44:56;102902.31;;;-1.54;87.14
72061;BME280;59925;52.136;5.420;2023-02-15T06:47:22;102900.81;;;-1.57;87.28
72061;BME280;59925;52.136;5.420;2023-02-15T06:49:48;102906.75;;;-1.55;87.17
72061;BME280;59925;52.136;5.420;2023-02-15T06:52:15;102908.53;;;-1.55;87.47
72061;BME280;59925;52.136;5.420;2023-02-15T06:54:41;102905.91;;;-1.55;87.72
72061;BME280;59925;52.136;5.420;2023-02-15T06:57:07;102904.13;;;-1.55;87.59
72061;BME280;59925;52.136;5.420;2023-02-15T06:59:35;102901.50;;;-1.55;87.38
72061;BME280;59925;52.136;5.420;2023-02-15T07:02:02;102902.19;;;-1.52;87.01
72061;BME280;59925;52.136;5.420;2023-02-15T07:04:28;102906.19;;;-1.48;87.71
72061;BME280;59925;52.136;5.420;2023-02-15T07:06:56;102900.41;;;-1.42;87.26
72061;BME280;59925;52.136;5.420;2023-02-15T07:09:22;102903.72;;;-1.40;87.82
72061;BME280;59925;52.136;5.420;2023-02-15T07:11:49;102902.63;;;-1.37;88.21
72061;BME280;59925;52.136;5.420;2023-02-15T07:14:34;102907.19;;;-1.40;87.86
72061;BME280;59925;52.136;5.420;2023-02-15T07:17:00;102901.75;;;-1.38;87.89
72061;BME280;59925;52.136;5.420;2023-02-15T07:19:26;102899.81;;;-1.36;88.18
72061;BME280;59925;52.136;5.420;2023-02-15T07:21:53;102904.00;;;-1.33;87.99
72061;BME280;59925;52.136;5.420;2023-02-15T07:24:19;102901.06;;;-1.30;88.15
72061;BME280;59925;52.136;5.420;2023-02-15T07:26:46;102902.63;;;-1.28;88.19
72061;BME280;59925;52.136;5.420;2023-02-15T07:29:12;102889.16;;;-1.25;88.39
72061;BME280;59925;52.136;5.420;2023-02-15T07:31:39;102881.69;;;-1.19;88.14
72061;BME280;59925;52.136;5.420;2023-02-15T07:34:06;102882.66;;;-1.11;88.47
72061;BME280;59925;52.136;5.420;2023-02-15T07:36:33;102871.25;;;-1.01;88.45
72061;BME280;59925;52.136;5.420;2023-02-15T07:38:59;102874.41;;;-0.88;88.68
72061;BME280;59925;52.136;5.420;2023-02-15T07:41:26;102859.97;;;-0.74;88.96
72061;BME280;59925;52.136;5.420;2023-02-15T07:43:52;102863.69;;;-0.67;89.72
72061;BME280;59925;52.136;5.420;2023-02-15T07:46:18;102860.31;;;-0.59;89.65
72061;BME280;59925;52.136;5.420;2023-02-15T07:48:47;102862.00;;;-0.58;90.31
72061;BME280;59925;52.136;5.420;2023-02-15T07:51:14;102866.13;;;-0.55;90.33
72061;BME280;59925;52.136;5.420;2023-02-15T07:53:42;102864.88;;;-0.51;90.44
72061;BME280;59925;52.136;5.420;2023-02-15T07:56:13;102854.72;;;-0.46;90.13
72061;BME280;59925;52.136;5.420;2023-02-15T07:58:40;102853.00;;;-0.37;90.80
72061;BME280;59925;52.136;5.420;2023-02-15T08:01:24;102858.19;;;-0.18;90.96
72061;BME280;59925;52.136;5.420;2023-02-15T08:03:51;102854.91;;;-0.02;91.19
72061;BME280;59925;52.136;5.420;2023-02-15T08:06:18;102850.84;;;0.04;91.79
72061;BME280;59925;52.136;5.420;2023-02-15T08:08:45;102843.03;;;0.12;91.52
72061;BME280;59925;52.136;5.420;2023-02-15T08:14:10;102847.53;;;0.38;92.56
72061;BME280;59925;52.136;5.420;2023-02-15T08:16:38;102839.53;;;0.48;92.08
72061;BME280;59925;52.136;5.420;2023-02-15T08:21:35;102843.78;;;0.67;92.70
72061;BME280;59925;52.136;5.420;2023-02-15T08:24:04;102851.50;;;0.79;92.56
72061;BME280;59925;52.136;5.420;2023-02-15T08:26:31;102844.28;;;0.89;92.77
72061;BME280;59925;52.136;5.420;2023-02-15T08:28:58;102838.94;;;1.07;92.92
72061;BME280;59925;52.136;5.420;2023-02-15T08:31:26;102843.19;;;1.26;92.80
72061;BME280;59925;52.136;5.420;2023-02-15T08:33:54;102837.66;;;1.46;92.75
72061;BME280;59925;52.136;5.420;2023-02-15T08:36:23;102840.53;;;1.61;92.74
72061;BME280;59925;52.136;5.420;2023-02-15T08:38:50;102841.56;;;1.76;92.32
72061;BME280;59925;52.136;5.420;2023-02-15T08:43:47;102829.41;;;2.00;92.78
72061;BME280;59925;52.136;5.420;2023-02-15T08:46:15;102826.59;;;2.10;92.38
72061;BME280;59925;52.136;5.420;2023-02-15T08:48:43;102822.66;;;2.22;92.01
72061;BME280;59925;52.136;5.420;2023-02-15T08:51:13;102818.50;;;2.36;92.09
72061;BME280;59925;52.136;5.420;2023-02-15T08:53:41;102815.19;;;2.51;91.49
72061;BME280;59925;52.136;5.420;2023-02-15T08:56:08;102814.53;;;2.65;91.45
72061;BME280;59925;52.136;5.420;2023-02-15T08:58:36;102813.84;;;2.80;90.59
72061;BME280;59925;52.136;5.420;2023-02-15T09:01:14;102816.13;;;2.91;90.88
72061;BME280;59925;52.136;5.420;2023-02-15T09:03:48;102816.63;;;2.95;89.87
72061;BME280;59925;52.136;5.420;2023-02-15T09:06:16;102810.13;;;3.05;90.09
72061;BME280;59925;52.136;5.420;2023-02-15T09:08:43;102811.91;;;3.21;89.07
72061;BME280;59925;52.136;5.420;2023-02-15T09:11:16;102807.22;;;3.32;88.80
72061;BME280;59925;52.136;5.420;2023-02-15T09:13:54;102807.34;;;3.38;88.68
72061;BME280;59925;52.136;5.420;2023-02-15T09:16:22;102799.53;;;3.45;88.46
72061;BME280;59925;52.136;5.420;2023-02-15T09:18:50;102795.69;;;3.56;88.22
72061;BME280;59925;52.136;5.420;2023-02-15T09:21:19;102797.06;;;3.75;88.36
72061;BME280;59925;52.136;5.420;2023-02-15T09:23:49;102793.31;;;3.93;87.62
72061;BME280;59925;52.136;5.420;2023-02-15T09:26:18;102798.88;;;4.44;87.38
72061;BME280;59925;52.136;5.420;2023-02-15T09:28:46;102796.03;;;4.99;86.06
72061;BME280;59925;52.136;5.420;2023-02-15T09:31:17;102790.00;;;5.42;84.61
72061;BME280;59925;52.136;5.420;2023-02-15T09:33:45;102790.31;;;6.06;83.66
72061;BME280;59925;52.136;5.420;2023-02-15T09:36:23;102797.13;;;6.37;81.78
72061;BME280;59925;52.136;5.420;2023-02-15T09:58:38;102783.75;;;6.30;77.75
72061;BME280;59925;52.136;5.420;2023-02-15T10:01:40;102781.13;;;6.37;77.74
72061;BME280;59925;52.136;5.420;2023-02-15T10:18:03;102802.00;;;6.90;76.34
72061;BME280;59925;52.136;5.420;2023-02-15T10:26:18;102793.53;;;7.15;75.30
72061;BME280;59925;52.136;5.420;2023-02-15T10:31:47;102799.06;;;7.69;74.43
72061;BME280;59925;52.136;5.420;2023-02-15T10:34:18;102803.38;;;7.76;73.38
72061;BME280;59925;52.136;5.420;2023-02-15T10:48:21;102802.44;;;8.31;71.56
72061;BME280;59925;52.136;5.420;2023-02-15T10:50:51;102797.28;;;8.43;70.95
72061;BME280;59925;52.136;5.420;2023-02-15T10:56:24;102797.59;;;9.00;70.77
72061;BME280;59925;52.136;5.420;2023-02-15T11:04:42;102782.41;;;9.01;68.51
72061;BME280;59925;52.136;5.420;2023-02-15T11:07:16;102778.03;;;9.13;68.43
72061;BME280;59925;52.136;5.420;2023-02-15T11:09:48;102771.38;;;9.29;68.36
72061;BME280;59925;52.136;5.420;2023-02-15T11:12:19;102773.25;;;9.61;68.69
72061;BME280;59925;52.136;5.420;2023-02-15T11:14:58;102778.09;;;9.77;68.14
72061;BME280;59925;52.136;5.420;2023-02-15T11:17:33;102766.41;;;9.72;66.78
72061;BME280;59925;52.136;5.420;2023-02-15T11:22:47;102758.50;;;9.84;66.62
72061;BME280;59925;52.136;5.420;2023-02-15T11:25:18;102759.16;;;9.79;66.46
72061;BME280;59925;52.136;5.420;2023-02-15T11:27:47;102752.97;;;9.78;66.66
72061;BME280;59925;52.136;5.420;2023-02-15T11:30:19;102746.56;;;9.79;66.19
72061;BME280;59925;52.136;5.420;2023-02-15T11:32:49;102754.28;;;9.69;66.47
72061;BME280;59925;52.136;5.420;2023-02-15T11:35:28;102747.75;;;9.90;66.89
72061;BME280;59925;52.136;5.420;2023-02-15T11:38:12;102737.72;;;10.04;66.17
72061;BME280;59925;52.136;5.420;2023-02-15T11:40:50;102730.72;;;10.28;65.75
72061;BME280;59925;52.136;5.420;2023-02-15T11:43:29;102725.72;;;10.57;64.92
72061;BME280;59925;52.136;5.420;2023-02-15T11:45:58;102724.50;;;11.09;64.35
72061;BME280;59925;52.136;5.420;2023-02-15T11:48:25;102704.75;;;11.34;62.96
72061;BME280;59925;52.136;5.420;2023-02-15T11:50:52;102703.28;;;11.50;62.77
72061;BME280;59925;52.136;5.420;2023-02-15T11:53:20;102701.00;;;11.77;62.68
72061;BME280;59925;52.136;5.420;2023-02-15T11:55:50;102694.47;;;11.97;61.43
72061;BME280;59925;52.136;5.420;2023-02-15T11:58:43;102689.91;;;12.33;61.62
72061;BME280;59925;52.136;5.420;2023-02-15T12:01:22;102681.97;;;12.50;60.64
72061;BME280;59925;52.136;5.420;2023-02-15T12:03:52;102676.25;;;12.35;59.13
72061;BME280;59925;52.136;5.420;2023-02-15T12:06:42;102680.06;;;12.51;60.30
72061;BME280;59925;52.136;5.420;2023-02-15T12:09:32;102683.34;;;12.53;59.45
72061;BME280;59925;52.136;5.420;2023-02-15T12:12:23;102686.06;;;12.17;60.12
72061;BME280;59925;52.136;5.420;2023-02-15T12:14:55;102680.91;;;12.39;59.69
72061;BME280;59925;52.136;5.420;2023-02-15T12:17:33;102679.16;;;12.33;59.93
72061;BME280;59925;52.136;5.420;2023-02-15T12:20:24;102670.63;;;12.36;60.83
72061;BME280;59925;52.136;5.420;2023-02-15T12:22:55;102673.44;;;12.41;60.12
72061;BME280;59925;52.136;5.420;2023-02-15T12:25:51;102678.34;;;12.33;58.86
72061;BME280;59925;52.136;5.420;2023-02-15T12:28:32;102667.81;;;12.31;58.43
72061;BME280;59925;52.136;5.420;2023-02-15T12:31:02;102669.00;;;12.11;58.84
72061;BME280;59925;52.136;5.420;2023-02-15T12:33:39;102659.34;;;12.63;59.35
72061;BME280;59925;52.136;5.420;2023-02-15T12:36:20;102663.69;;;12.93;59.30
72061;BME280;59925;52.136;5.420;2023-02-15T12:41:46;102648.28;;;13.06;58.53
72061;BME280;59925;52.136;5.420;2023-02-15T12:44:21;102645.66;;;13.40;57.99
72061;BME280;59925;52.136;5.420;2023-02-15T12:49:34;102641.22;;;14.24;55.67
72061;BME280;59925;52.136;5.420;2023-02-15T12:52:05;102635.41;;;14.32;55.32
72061;BME280;59925;52.136;5.420;2023-02-15T12:54:40;102638.84;;;14.50;54.60
72061;BME280;59925;52.136;5.420;2023-02-15T12:57:31;102632.34;;;14.95;55.30
72061;BME280;59925;52.136;5.420;2023-02-15T13:00:11;102643.50;;;14.77;53.56
72061;BME280;59925;52.136;5.420;2023-02-15T13:02:53;102636.28;;;14.16;53.55
72061;BME280;59925;52.136;5.420;2023-02-15T13:07:54;102644.72;;;13.34;55.31
72061;BME280;59925;52.136;5.420;2023-02-15T13:10:28;102645.53;;;13.17;56.22
72061;BME280;59925;52.136;5.420;2023-02-15T13:12:56;102638.69;;;13.27;56.38
72061;BME280;59925;52.136;5.420;2023-02-15T13:15:35;102629.03;;;13.14;56.15
72061;BME280;59925;52.136;5.420;2023-02-15T13:18:04;102622.28;;;13.28;57.07
72061;BME280;59925;52.136;5.420;2023-02-15T13:20:34;102610.41;;;13.41;56.89
72061;BME280;59925;52.136;5.420;2023-02-15T13:23:06;102614.78;;;13.30;56.49
72061;BME280;59925;52.136;5.420;2023-02-15T13:25:44;102613.56;;;13.21;56.84
72061;BME280;59925;52.136;5.420;2023-02-15T13:28:14;102618.53;;;13.12;57.48
72061;BME280;59925;52.136;5.420;2023-02-15T13:30:43;102620.06;;;13.25;57.98
72061;BME280;59925;52.136;5.420;2023-02-15T13:33:30;102619.84;;;13.10;58.18
72061;BME280;59925;52.136;5.420;2023-02-15T13:36:09;102614.25;;;12.99;57.93
72061;BME280;59925;52.136;5.420;2023-02-15T13:38:46;102621.75;;;12.97;58.03
72061;BME280;59925;52.136;5.420;2023-02-15T13:41:19;102616.47;;;13.02;58.64
72061;BME280;59925;52.136;5.420;2023-02-15T13:43:55;102610.91;;;12.92;58.47
72061;BME280;59925;52.136;5.420;2023-02-15T13:46:45;102604.50;;;12.81;58.46
72061;BME280;59925;52.136;5.420;2023-02-15T13:49:24;102608.88;;;12.70;58.29
72061;BME280;59925;52.136;5.420;2023-02-15T14:09:40;102589.78;;;12.55;58.91
72061;BME280;59925;52.136;5.420;2023-02-15T14:15:26;102592.75;;;12.30;58.98
72061;BME280;59925;52.136;5.420;2023-02-15T14:18:01;102596.28;;;12.18;59.41
72061;BME280;59925;52.136;5.420;2023-02-15T14:26:01;102593.38;;;12.20;59.25
72061;BME280;59925;52.136;5.420;2023-02-15T14:28:34;102594.28;;;12.25;59.35
72061;BME280;59925;52.136;5.420;2023-02-15T14:31:04;102589.75;;;12.26;59.88
72061;BME280;59925;52.136;5.420;2023-02-15T14:33:39;102592.56;;;12.19;59.85
72061;BME280;59925;52.136;5.420;2023-02-15T14:36:08;102593.75;;;12.11;59.42
72061;BME280;59925;52.136;5.420;2023-02-15T14:39:11;102596.22;;;12.01;59.54
72061;BME280;59925;52.136;5.420;2023-02-15T14:42:24;102592.94;;;11.99;59.66
72061;BME280;59925;52.136;5.420;2023-02-15T14:45:15;102588.47;;;11.93;59.46
72061;BME280;59925;52.136;5.420;2023-02-15T14:48:01;102583.34;;;11.79;59.38
72061;BME280;59925;52.136;5.420;2023-02-15T14:55:44;102582.28;;;11.80;60.16
72061;BME280;59925;52.136;5.420;2023-02-15T14:58:12;102588.25;;;11.83;60.54
72061;BME280;59925;52.136;5.420;2023-02-15T15:00:40;102590.59;;;11.91;60.73
72061;BME280;59925;52.136;5.420;2023-02-15T15:03:21;102588.72;;;11.79;60.77
72061;BME280;59925;52.136;5.420;2023-02-15T15:05:54;102587.19;;;11.72;60.71
72061;BME280;59925;52.136;5.420;2023-02-15T15:08:37;102586.03;;;11.68;61.24
72061;BME280;59925;52.136;5.420;2023-02-15T15:14:09;102591.75;;;11.71;60.77
72061;BME280;59925;52.136;5.420;2023-02-15T15:19:05;102586.13;;;11.49;61.01
72061;BME280;59925;52.136;5.420;2023-02-15T15:44:38;102578.66;;;11.27;62.23
72061;BME280;59925;52.136;5.420;2023-02-15T15:49:58;102573.69;;;11.12;62.05
72061;BME280;59925;52.136;5.420;2023-02-15T15:52:26;102573.34;;;11.09;62.52
72061;BME280;59925;52.136;5.420;2023-02-15T15:54:57;102581.75;;;11.12;62.73
72061;BME280;59925;52.136;5.420;2023-02-15T15:57:33;102577.78;;;11.03;62.48
72061;BME280;59925;52.136;5.420;2023-02-15T16:00:02;102580.56;;;10.96;62.89
72061;BME280;59925;52.136;5.420;2023-02-15T16:02:29;102574.97;;;10.98;63.13
72061;BME280;59925;52.136;5.420;2023-02-15T16:05:06;102573.91;;;10.99;63.04
72061;BME280;59925;52.136;5.420;2023-02-15T16:07:33;102567.84;;;10.92;63.13
72061;BME280;59925;52.136;5.420;2023-02-15T16:10:05;102566.78;;;10.93;63.15
72061;BME280;59925;52.136;5.420;2023-02-15T16:12:34;102570.75;;;10.90;63.30
72061;BME280;59925;52.136;5.420;2023-02-15T16:15:14;102559.84;;;10.73;63.06